Time;durP1;ratioP1;P1;durP2;ratioP2;P2;SDS_P1;SDS_P2;PMS_P1;PMS_P2;Temp;Humidity;BMP_temperature;BMP_pressure;BME280_temperature;BME280_humidity;BME280_pressure;Samples;Min_cycle;Max_cycle;Signal;HPM_P1;HPM_P2
2023/06/12 00:01:40;;;;;;;8.17;7.33;;;24.10;45.90;;;;;;4922560;29;20494;-85
2023/06/12 00:04:07;;;;;;;11.57;6.60;;;23.80;45.50;;;;;;4919173;29;21155;-87
2023/06/12 00:06:35;;;;;;;7.33;6.63;;;23.60;45.80;;;;;;4916070;29;20470;-83
2023/06/12 00:09:04;;;;;;;7.37;6.67;;;23.70;46.10;;;;;;4932185;29;20458;-83
2023/06/12 00:11:32;;;;;;;7.10;6.40;;;23.70;46.20;;;;;;4918106;29;20477;-83
2023/06/12 00:14:00;;;;;;;7.10;6.40;;;23.70;45.70;;;;;;4933708;29;20447;-83
2023/06/12 00:16:28;;;;;;;8.60;7.80;;;23.40;46.60;;;;;;4906860;29;20458;-82
2023/06/12 00:18:56;;;;;;;12.07;7.50;;;23.40;46.40;;;;;;4918602;29;20508;-82
2023/06/12 00:21:23;;;;;;;7.80;7.00;;;23.50;46.20;;;;;;4933449;29;20454;-83
2023/06/12 00:23:51;;;;;;;10.90;7.00;;;23.50;46.40;;;;;;4923758;29;20458;-84
2023/06/12 00:26:18;;;;;;;7.90;7.07;;;23.50;46.40;;;;;;4913480;29;20482;-83
2023/06/12 00:28:46;;;;;;;9.03;7.30;;;23.50;46.60;;;;;;4901643;29;20467;-83
2023/06/12 00:31:13;;;;;;;7.47;6.77;;;23.50;46.60;;;;;;4898555;29;20463;-83
2023/06/12 00:33:41;;;;;;;8.07;7.10;;;23.40;46.80;;;;;;4928790;29;20447;-82
2023/06/12 00:36:09;;;;;;;10.30;6.77;;;23.40;47.40;;;;;;4898505;29;20469;-82
2023/06/12 00:38:36;;;;;;;8.73;7.60;;;23.30;45.90;;;;;;4917199;29;20485;-86
2023/06/12 00:41:03;;;;;;;8.07;7.00;;;23.30;46.30;;;;;;4911047;29;20481;-87
2023/06/12 00:43:30;;;;;;;7.70;6.63;;;23.20;46.60;;;;;;4906711;29;20451;-87
2023/06/12 00:45:58;;;;;;;7.73;7.00;;;23.20;46.70;;;;;;4920777;29;20454;-86
2023/06/12 00:48:24;;;;;;;8.10;7.30;;;23.20;46.40;;;;;;4912614;29;20474;-86
2023/06/12 00:50:52;;;;;;;7.70;6.90;;;23.20;46.70;;;;;;4931451;29;20478;-85
2023/06/12 00:53:21;;;;;;;8.10;6.93;;;23.10;46.10;;;;;;4917481;29;20477;-86
2023/06/12 00:55:48;;;;;;;8.73;7.83;;;22.60;46.50;;;;;;4920717;29;22312;-86
2023/06/12 00:58:14;;;;;;;7.53;6.80;;;22.40;47.00;;;;;;4907892;29;20505;-88
2023/06/12 01:00:43;;;;;;;10.40;7.47;;;22.20;47.20;;;;;;4923324;29;20519;-85
2023/06/12 01:03:12;;;;;;;8.47;7.10;;;22.20;47.80;;;;;;4922212;29;20953;-87
2023/06/12 01:05:43;;;;;;;8.63;7.60;;;22.30;48.00;;;;;;4907925;29;20450;-88
2023/06/12 01:08:17;;;;;;;7.93;7.17;;;22.40;47.80;;;;;;4922569;29;20482;-87
2023/06/12 01:10:52;;;;;;;7.87;6.73;;;22.50;47.60;;;;;;4902625;29;20465;-87
2023/06/12 01:13:20;;;;;;;10.27;8.20;;;22.60;47.00;;;;;;4910953;29;20537;-86
2023/06/12 01:15:48;;;;;;;8.63;7.53;;;22.60;46.80;;;;;;4907878;29;20450;-87
2023/06/12 01:18:16;;;;;;;7.60;6.90;;;22.60;46.70;;;;;;4908675;29;20923;-86
2023/06/12 01:20:44;;;;;;;10.13;7.87;;;22.50;46.60;;;;;;4910579;29;20466;-87
2023/06/12 01:23:18;;;;;;;8.77;7.07;;;22.50;46.80;;;;;;4925326;29;20972;-86
2023/06/12 01:26:18;;;;;;;8.67;7.87;;;22.50;47.10;;;;;;4920877;29;20537;-87
2023/06/12 01:29:13;;;;;;;7.77;6.93;;;22.50;47.20;;;;;;4921780;29;20924;-86
2023/06/12 01:31:56;;;;;;;8.57;7.60;;;22.40;47.10;;;;;;4919404;29;20482;-86
2023/06/12 01:34:29;;;;;;;8.20;7.40;;;22.20;47.40;;;;;;4902669;29;20549;-87
2023/06/12 01:37:05;;;;;;;10.00;7.50;;;22.20;47.30;;;;;;4921826;29;20444;-87
2023/06/12 01:39:39;;;;;;;11.23;7.60;;;22.10;47.40;;;;;;4953363;28;20457;-86
2023/06/12 01:42:08;;;;;;;7.97;7.10;;;22.00;48.30;;;;;;4937082;28;20448;-87
2023/06/12 01:44:37;;;;;;;9.03;7.50;;;22.10;48.50;;;;;;4921653;29;20489;-87
2023/06/12 01:47:06;;;;;;;7.50;6.73;;;22.20;48.70;;;;;;4924570;28;20671;-87
2023/06/12 01:49:33;;;;;;;9.90;7.77;;;22.20;48.90;;;;;;4908300;29;20449;-86
2023/06/12 01:52:01;;;;;;;8.13;7.40;;;22.20;49.30;;;;;;4905185;29;20480;-87
2023/06/12 01:54:33;;;;;;;10.43;7.30;;;22.20;49.60;;;;;;4934684;28;20498;-86
2023/06/12 01:57:01;;;;;;;9.40;7.60;;;22.20;49.40;;;;;;4934449;29;20461;-86
2023/06/12 01:59:34;;;;;;;7.63;6.80;;;22.20;49.50;;;;;;4925874;29;20458;-86
2023/06/12 02:02:01;;;;;;;8.93;7.87;;;22.20;49.10;;;;;;4926471;29;20894;-87
2023/06/12 02:04:30;;;;;;;7.50;6.70;;;22.20;48.70;;;;;;4922703;29;20452;-89
2023/06/12 02:07:00;;;;;;;10.20;7.20;;;22.10;48.00;;;;;;4908211;29;20459;-85
2023/06/12 02:09:28;;;;;;;8.70;7.70;;;22.00;48.30;;;;;;4926713;29;21049;-87
2023/06/12 02:11:55;;;;;;;8.00;6.83;;;21.90;48.50;;;;;;4923045;29;21084;-86
2023/06/12 02:14:24;;;;;;;7.97;7.17;;;21.90;48.20;;;;;;4910642;29;20486;-88
2023/06/12 02:16:53;;;;;;;7.57;6.87;;;21.90;47.70;;;;;;4923741;29;20454;-86
2023/06/12 02:19:25;;;;;;;10.43;7.30;;;21.80;48.10;;;;;;4938181;28;20989;-86
2023/06/12 02:21:53;;;;;;;7.87;6.73;;;21.80;48.20;;;;;;4919397;29;21067;-88
2023/06/12 02:24:21;;;;;;;10.30;8.07;;;21.80;48.30;;;;;;4913276;29;20458;-86
2023/06/12 02:26:48;;;;;;;7.00;6.40;;;21.80;48.30;;;;;;4938172;29;20447;-86
2023/06/12 02:29:16;;;;;;;8.70;7.10;;;21.90;48.20;;;;;;4926115;29;20551;-86
2023/06/12 02:31:50;;;;;;;9.27;7.80;;;21.90;48.20;;;;;;4912972;29;20481;-86
2023/06/12 02:34:17;;;;;;;8.77;7.87;;;21.80;48.00;;;;;;4923495;29;20450;-85
2023/06/12 02:36:46;;;;;;;9.37;7.67;;;21.80;47.70;;;;;;4922683;29;20470;-86
2023/06/12 02:39:20;;;;;;;9.80;7.37;;;21.80;47.70;;;;;;4912361;29;20851;-85
2023/06/12 02:41:49;;;;;;;8.27;7.47;;;21.80;47.90;;;;;;4917559;29;20447;-87
2023/06/12 02:44:17;;;;;;;8.57;7.77;;;21.70;48.30;;;;;;4927404;29;20537;-86
2023/06/12 02:46:53;;;;;;;7.47;6.57;;;21.70;48.80;;;;;;4923288;29;21080;-87
2023/06/12 02:49:22;;;;;;;8.87;7.97;;;21.60;48.80;;;;;;4912377;29;21199;-86
2023/06/12 02:51:49;;;;;;;8.10;7.27;;;21.60;49.10;;;;;;4917370;29;20470;-86
2023/06/12 02:54:18;;;;;;;7.97;7.20;;;21.50;49.10;;;;;;4925695;29;20463;-86
2023/06/12 02:56:46;;;;;;;8.80;7.40;;;21.50;49.00;;;;;;4911172;29;20450;-87
2023/06/12 02:59:15;;;;;;;10.10;7.70;;;21.50;49.20;;;;;;4903224;29;20474;-86
2023/06/12 03:01:43;;;;;;;7.87;6.90;;;21.50;48.80;;;;;;4926808;29;20466;-87
2023/06/12 03:04:12;;;;;;;10.10;7.20;;;21.50;49.10;;;;;;4922846;29;20482;-85
2023/06/12 03:06:40;;;;;;;9.50;7.27;;;21.40;48.80;;;;;;4923146;29;20454;-86
2023/06/12 03:09:08;;;;;;;7.17;6.20;;;21.30;48.70;;;;;;4905343;29;20486;-86
2023/06/12 03:11:36;;;;;;;10.80;6.93;;;21.30;48.60;;;;;;4927230;29;20597;-85
2023/06/12 03:14:04;;;;;;;8.60;7.80;;;21.20;48.50;;;;;;4934073;29;20525;-87
2023/06/12 03:16:31;;;;;;;8.13;7.33;;;21.20;49.30;;;;;;4932819;29;20528;-86
2023/06/12 03:18:58;;;;;;;8.97;7.67;;;21.10;49.40;;;;;;4923298;29;20480;-86
2023/06/12 03:21:25;;;;;;;10.80;8.00;;;21.20;49.60;;;;;;4908003;29;21187;-88
2023/06/12 03:23:52;;;;;;;10.00;8.07;;;21.10;49.90;;;;;;4906376;29;20990;-87
2023/06/12 03:26:20;;;;;;;8.80;7.60;;;21.10;50.30;;;;;;4921519;29;20459;-87
2023/06/12 03:28:47;;;;;;;9.97;8.03;;;21.10;50.80;;;;;;4937116;29;20562;-86
2023/06/12 03:31:15;;;;;;;8.57;7.63;;;21.10;51.20;;;;;;4918882;29;20470;-87
2023/06/12 03:33:43;;;;;;;15.90;8.73;;;21.10;51.60;;;;;;4930932;28;20871;-87
2023/06/12 03:36:16;;;;;;;9.20;8.20;;;21.00;52.80;;;;;;4918197;29;20644;-87
2023/06/12 03:38:43;;;;;;;11.40;7.90;;;21.10;52.50;;;;;;4910401;29;20495;-87
2023/06/12 03:41:12;;;;;;;8.90;7.30;;;21.10;52.20;;;;;;4912235;29;20458;-85
2023/06/12 03:43:39;;;;;;;14.43;9.00;;;21.10;52.40;;;;;;4910070;29;20808;-87
2023/06/12 03:46:07;;;;;;;8.57;7.47;;;21.10;52.50;;;;;;4908179;29;20462;-86
2023/06/12 03:48:36;;;;;;;11.03;7.73;;;21.10;52.40;;;;;;4936451;29;20493;-86
2023/06/12 03:51:03;;;;;;;11.93;8.23;;;21.10;52.80;;;;;;4910357;29;20491;-87
2023/06/12 03:53:30;;;;;;;11.23;9.07;;;21.10;52.80;;;;;;4937272;29;20994;-86
2023/06/12 03:55:57;;;;;;;9.77;8.60;;;21.10;52.80;;;;;;4919173;28;20480;-86
2023/06/12 03:58:25;;;;;;;12.53;8.97;;;21.00;53.00;;;;;;4934444;28;20475;-87
2023/06/12 04:00:52;;;;;;;11.30;8.67;;;21.00;53.00;;;;;;4922525;29;20451;-87
2023/06/12 04:03:21;;;;;;;13.97;8.90;;;21.00;53.40;;;;;;4925337;29;20465;-86
2023/06/12 04:05:49;;;;;;;12.47;9.27;;;21.00;53.40;;;;;;4934318;29;20478;-86
2023/06/12 04:08:16;;;;;;;9.40;8.50;;;21.00;53.60;;;;;;4908176;29;20474;-87
2023/06/12 04:10:44;;;;;;;7.80;7.10;;;21.00;53.70;;;;;;4934280;29;20459;-86
2023/06/12 04:13:11;;;;;;;15.23;9.00;;;21.00;53.20;;;;;;4907250;29;20519;-87
2023/06/12 04:15:39;;;;;;;8.57;7.57;;;21.10;53.30;;;;;;4942557;29;20454;-87
2023/06/12 04:18:09;;;;;;;12.97;9.27;;;21.10;53.60;;;;;;4938591;28;20478;-87
2023/06/12 04:20:38;;;;;;;9.40;8.13;;;21.10;53.30;;;;;;4916003;29;20462;-85
2023/06/12 04:23:11;;;;;;;10.17;8.93;;;21.10;53.10;;;;;;4900237;29;20446;-86
2023/06/12 04:25:38;;;;;;;12.37;8.77;;;21.10;53.40;;;;;;4908659;29;20534;-86
2023/06/12 04:28:07;;;;;;;11.90;8.80;;;21.10;53.40;;;;;;4919412;29;20486;-87
2023/06/12 04:30:35;;;;;;;17.27;8.87;;;21.10;53.50;;;;;;4921280;29;20533;-86
2023/06/12 04:33:02;;;;;;;9.87;8.87;;;21.10;53.90;;;;;;4923218;29;20480;-88
2023/06/12 04:35:33;;;;;;;9.40;8.37;;;21.10;54.00;;;;;;4932995;29;20522;-88
2023/06/12 04:38:00;;;;;;;8.93;8.03;;;21.10;53.90;;;;;;4919058;29;20466;-87
2023/06/12 04:40:28;;;;;;;9.13;7.97;;;21.10;54.00;;;;;;4934229;29;20465;-87
2023/06/12 04:42:59;;;;;;;10.70;8.27;;;21.20;54.10;;;;;;4932256;28;20451;-87
2023/06/12 04:45:32;;;;;;;9.97;8.93;;;21.20;54.00;;;;;;4936579;29;20458;-87
2023/06/12 04:48:01;;;;;;;11.00;9.03;;;21.20;54.20;;;;;;4924280;29;20475;-87
2023/06/12 04:50:30;;;;;;;9.57;8.67;;;21.20;54.10;;;;;;4923864;29;21028;-87
2023/06/12 04:52:57;;;;;;;13.70;8.23;;;21.20;53.80;;;;;;4922510;29;20466;-87
2023/06/12 04:55:28;;;;;;;12.10;9.00;;;21.10;54.10;;;;;;4902869;29;20566;-87
2023/06/12 04:57:57;;;;;;;11.20;8.40;;;21.10;54.30;;;;;;4918247;29;20740;-87
2023/06/12 05:00:28;;;;;;;10.37;9.30;;;21.20;54.40;;;;;;4921597;29;21315;-87
2023/06/12 05:02:58;;;;;;;15.37;9.00;;;21.10;53.80;;;;;;4922486;29;20455;-86
2023/06/12 05:05:27;;;;;;;10.37;8.63;;;20.90;54.30;;;;;;4901612;29;20451;-87
2023/06/12 05:07:54;;;;;;;12.60;9.00;;;21.00;54.50;;;;;;4915199;29;20605;-86
2023/06/12 05:10:22;;;;;;;10.93;9.73;;;21.10;54.40;;;;;;4907608;29;20452;-86
2023/06/12 05:12:49;;;;;;;11.37;9.30;;;21.10;54.20;;;;;;4917944;29;20470;-87
2023/06/12 05:15:18;;;;;;;11.67;9.10;;;21.20;53.80;;;;;;4920373;29;20465;-86
2023/06/12 05:17:45;;;;;;;9.63;8.63;;;21.30;54.00;;;;;;4906674;29;20492;-86
2023/06/12 05:20:12;;;;;;;11.70;7.93;;;21.30;53.20;;;;;;4906464;29;20443;-86
2023/06/12 05:22:39;;;;;;;12.93;8.80;;;21.40;53.10;;;;;;4918609;29;20489;-88
2023/06/12 05:25:07;;;;;;;10.30;9.20;;;21.40;53.30;;;;;;4925453;29;20461;-87
2023/06/12 05:27:34;;;;;;;11.00;8.57;;;21.40;53.20;;;;;;4917805;29;20474;-86
2023/06/12 05:30:02;;;;;;;12.83;9.60;;;21.50;53.60;;;;;;4920896;29;20474;-87
2023/06/12 05:32:31;;;;;;;12.10;8.50;;;21.60;53.10;;;;;;4918906;29;20483;-88
2023/06/12 05:34:58;;;;;;;9.57;8.47;;;21.50;53.00;;;;;;4917627;29;20463;-86
2023/06/12 05:37:25;;;;;;;10.73;9.63;;;21.50;52.80;;;;;;4904830;29;21022;-87
2023/06/12 05:39:54;;;;;;;12.27;9.13;;;21.60;53.40;;;;;;4905315;29;20451;-87
2023/06/12 05:42:21;;;;;;;12.33;8.47;;;21.80;53.50;;;;;;4914889;29;20455;-87
2023/06/12 05:44:48;;;;;;;9.83;8.83;;;21.90;53.70;;;;;;4922521;29;20488;-87
2023/06/12 05:47:17;;;;;;;9.80;8.80;;;22.10;53.80;;;;;;4929740;28;20541;-87
2023/06/12 05:49:45;;;;;;;12.50;9.27;;;22.10;53.50;;;;;;4924990;29;20470;-88
2023/06/12 05:52:12;;;;;;;11.33;8.73;;;22.30;54.00;;;;;;4925543;29;20466;-87
2023/06/12 05:54:39;;;;;;;10.23;8.73;;;22.40;52.40;;;;;;4906012;29;20472;-87
2023/06/12 05:57:06;;;;;;;13.43;8.77;;;22.30;52.30;;;;;;4928916;28;20945;-88
2023/06/12 05:59:33;;;;;;;11.13;8.63;;;22.20;52.30;;;;;;4919569;29;20513;-88
2023/06/12 06:02:00;;;;;;;9.03;7.97;;;22.20;52.50;;;;;;4911300;29;20454;-87
2023/06/12 06:04:29;;;;;;;10.17;7.87;;;22.60;52.80;;;;;;4929000;29;20557;-88
2023/06/12 06:06:57;;;;;;;10.53;8.30;;;22.90;52.00;;;;;;4930422;29;20936;-88
2023/06/12 06:09:26;;;;;;;9.30;8.10;;;23.10;52.40;;;;;;4908629;29;20546;-87
2023/06/12 06:11:53;;;;;;;11.47;8.17;;;23.10;51.50;;;;;;4915742;29;21265;-87
2023/06/12 06:14:20;;;;;;;9.07;8.10;;;23.20;52.10;;;;;;4915067;29;20468;-87
2023/06/12 06:16:47;;;;;;;9.90;8.33;;;23.20;50.60;;;;;;4928645;29;20447;-88
2023/06/12 06:19:14;;;;;;;10.20;8.50;;;23.00;50.50;;;;;;4906298;29;20474;-88
2023/06/12 06:21:41;;;;;;;10.43;9.30;;;23.20;50.70;;;;;;4928149;29;20455;-88
2023/06/12 06:24:10;;;;;;;12.50;8.23;;;23.40;50.40;;;;;;4923773;29;20466;-89
2023/06/12 06:26:38;;;;;;;10.70;9.03;;;23.30;49.90;;;;;;4928251;29;20463;-88
2023/06/12 06:29:05;;;;;;;9.63;8.63;;;23.50;50.10;;;;;;4937107;29;20471;-88
2023/06/12 06:31:32;;;;;;;10.60;8.70;;;23.80;49.80;;;;;;4928899;29;20446;-88
2023/06/12 06:33:59;;;;;;;10.30;8.00;;;24.00;48.00;;;;;;4913876;29;20461;-87
2023/06/12 06:36:26;;;;;;;9.00;7.60;;;23.90;47.90;;;;;;4928593;29;20446;-88
2023/06/12 06:38:55;;;;;;;9.13;8.27;;;24.10;48.00;;;;;;4921442;29;20501;-89
2023/06/12 06:41:24;;;;;;;15.50;9.03;;;24.20;48.70;;;;;;4907140;29;21017;-87
2023/06/12 06:43:51;;;;;;;13.00;8.83;;;24.10;47.70;;;;;;4913137;29;21420;-87
2023/06/12 06:46:20;;;;;;;11.20;8.37;;;24.30;48.40;;;;;;4924108;29;20447;-87
2023/06/12 06:48:47;;;;;;;11.97;8.23;;;24.20;48.30;;;;;;4911161;29;20475;-88
2023/06/12 06:51:15;;;;;;;11.03;7.93;;;24.20;48.00;;;;;;4928955;29;20458;-90
2023/06/12 06:53:42;;;;;;;9.40;8.00;;;24.40;48.40;;;;;;4914261;29;20474;-87
2023/06/12 06:56:09;;;;;;;9.20;8.30;;;24.60;47.20;;;;;;4926388;29;20463;-88
2023/06/12 06:58:37;;;;;;;10.73;7.63;;;24.60;47.50;;;;;;4911595;29;20552;-87
2023/06/12 07:01:05;;;;;;;9.23;7.57;;;24.50;47.70;;;;;;4927295;29;20518;-88
2023/06/12 07:03:33;;;;;;;8.60;7.70;;;24.80;47.80;;;;;;4928988;29;20443;-88
2023/06/12 07:06:00;;;;;;;9.17;8.00;;;25.10;47.80;;;;;;4904957;29;20550;-86
2023/06/12 07:08:27;;;;;;;10.20;8.53;;;25.20;46.10;;;;;;4912421;29;20478;-87
2023/06/12 07:10:53;;;;;;;9.50;7.87;;;25.10;46.50;;;;;;4941265;29;20462;-87
2023/06/12 07:13:20;;;;;;;16.43;8.47;;;25.20;46.60;;;;;;4907685;29;20553;-87
2023/06/12 07:15:54;;;;;;;11.07;8.30;;;25.20;46.30;;;;;;4911461;29;20447;-86
2023/06/12 07:18:22;;;;;;;9.40;7.83;;;25.50;46.80;;;;;;4911352;29;20590;-88
2023/06/12 07:20:49;;;;;;;10.07;8.00;;;25.80;46.50;;;;;;4934801;29;20482;-87
2023/06/12 07:23:17;;;;;;;8.80;7.77;;;25.80;45.40;;;;;;4911488;29;20442;-86
2023/06/12 07:25:43;;;;;;;9.17;7.80;;;25.90;45.90;;;;;;4927825;29;20531;-86
2023/06/12 07:28:11;;;;;;;9.13;7.00;;;26.10;45.90;;;;;;4913755;29;20984;-88
2023/06/12 07:30:38;;;;;;;9.20;7.53;;;25.90;45.10;;;;;;4924188;29;20567;-87
2023/06/12 07:33:07;;;;;;;10.77;8.10;;;26.20;45.30;;;;;;4908619;29;21004;-86
2023/06/12 07:35:35;;;;;;;10.87;7.00;;;26.30;44.20;;;;;;4920352;29;21920;-87
2023/06/12 07:38:03;;;;;;;7.80;7.00;;;26.00;42.80;;;;;;4920765;29;20522;-87
2023/06/12 07:40:30;;;;;;;8.53;7.30;;;26.10;42.20;;;;;;4914751;29;20461;-86
2023/06/12 07:42:58;;;;;;;7.57;6.77;;;26.30;41.60;;;;;;4905974;29;20487;-87
2023/06/12 07:45:26;;;;;;;8.83;7.97;;;26.40;43.30;;;;;;4922930;29;20457;-89
2023/06/12 07:47:55;;;;;;;8.50;6.90;;;26.60;41.90;;;;;;4902442;29;20463;-87
2023/06/12 07:50:26;;;;;;;7.90;7.20;;;26.70;40.50;;;;;;4901046;29;20450;-87
2023/06/12 07:52:54;;;;;;;7.90;7.10;;;26.60;40.50;;;;;;4920680;29;20478;-86
2023/06/12 07:55:21;;;;;;;12.73;7.30;;;26.80;40.70;;;;;;4900669;29;22811;-86
2023/06/12 07:57:50;;;;;;;8.77;6.90;;;26.80;39.70;;;;;;4929687;28;20481;-85
2023/06/12 08:00:17;;;;;;;8.33;7.13;;;26.80;40.60;;;;;;4920676;29;20696;-86
2023/06/12 08:02:54;;;;;;;7.30;6.60;;;26.80;40.10;;;;;;4932485;29;21280;-86
2023/06/12 08:05:26;;;;;;;9.27;8.00;;;26.90;39.60;;;;;;4916171;29;20457;-88
2023/06/12 08:07:56;;;;;;;7.07;6.37;;;27.30;40.90;;;;;;4921825;29;20475;-89
2023/06/12 08:10:23;;;;;;;9.73;7.17;;;27.50;38.30;;;;;;4909920;29;21228;-89
2023/06/12 08:12:50;;;;;;;7.87;7.00;;;27.70;40.20;;;;;;4928180;29;20477;-88
2023/06/12 08:15:19;;;;;;;8.40;7.40;;;27.90;38.60;;;;;;4908142;29;20533;-87
2023/06/12 08:17:46;;;;;;;8.60;6.30;;;27.90;37.60;;;;;;4911284;29;20474;-87
2023/06/12 08:20:17;;;;;;;7.80;7.10;;;27.70;37.60;;;;;;4909440;29;21063;-86
2023/06/12 08:22:48;;;;;;;8.03;6.50;;;27.50;37.80;;;;;;4926092;29;20454;-87
2023/06/12 08:25:15;;;;;;;9.67;6.47;;;27.70;37.90;;;;;;4921494;29;20544;-88
2023/06/12 08:27:43;;;;;;;13.33;6.90;;;27.80;37.60;;;;;;4918287;29;20470;-88
2023/06/12 08:30:10;;;;;;;7.63;6.70;;;27.90;36.80;;;;;;4923878;29;20462;-87
2023/06/12 08:32:37;;;;;;;8.20;7.03;;;27.90;36.50;;;;;;4907355;29;20470;-88
2023/06/12 08:35:05;;;;;;;18.33;7.20;;;28.10;36.70;;;;;;4936493;29;21475;-87
2023/06/12 08:37:33;;;;;;;6.87;6.23;;;28.30;37.30;;;;;;4913109;29;20554;-90
2023/06/12 08:40:03;;;;;;;7.13;6.50;;;28.60;34.40;;;;;;4906342;29;20474;-88
2023/06/12 08:42:32;;;;;;;7.47;6.67;;;28.30;34.30;;;;;;4921595;29;21062;-86
2023/06/12 08:45:04;;;;;;;7.30;6.50;;;28.40;35.80;;;;;;4922223;29;20522;-88
2023/06/12 08:47:34;;;;;;;11.23;6.00;;;28.60;34.50;;;;;;4925654;29;20482;-87
2023/06/12 08:50:03;;;;;;;9.17;6.90;;;28.80;35.00;;;;;;4927822;29;20445;-87
2023/06/12 08:52:32;;;;;;;7.53;6.50;;;29.00;34.10;;;;;;4906959;29;20457;-87
2023/06/12 08:54:59;;;;;;;7.00;6.40;;;29.20;34.20;;;;;;4919025;29;20458;-88
2023/06/12 08:57:28;;;;;;;6.40;5.80;;;29.30;33.40;;;;;;4915879;29;20518;-87
2023/06/12 08:59:56;;;;;;;6.67;6.07;;;29.40;32.20;;;;;;4914267;29;20538;-87
2023/06/12 09:02:25;;;;;;;12.10;6.50;;;29.40;33.10;;;;;;4920244;29;20469;-87
2023/06/12 09:04:59;;;;;;;6.60;5.90;;;29.50;33.40;;;;;;4952317;28;20458;-88
2023/06/12 09:07:29;;;;;;;7.07;5.83;;;29.30;33.30;;;;;;4916962;29;20493;-87
2023/06/12 09:09:56;;;;;;;7.47;6.63;;;29.50;33.10;;;;;;4925876;29;20461;-87
2023/06/12 09:12:23;;;;;;;9.50;6.20;;;29.80;32.70;;;;;;4917199;29;20907;-87
2023/06/12 09:14:52;;;;;;;8.03;6.33;;;30.00;31.90;;;;;;4922518;29;20458;-88
2023/06/12 09:17:19;;;;;;;7.70;5.60;;;29.90;30.70;;;;;;4915860;29;20461;-88
2023/06/12 09:19:48;;;;;;;8.30;5.30;;;30.00;30.30;;;;;;4923459;29;20455;-87
2023/06/12 09:22:16;;;;;;;6.20;5.60;;;30.10;30.20;;;;;;4927015;29;20462;-86
2023/06/12 09:24:43;;;;;;;6.20;5.60;;;30.20;29.50;;;;;;4926601;29;20473;-86
2023/06/12 09:27:11;;;;;;;7.07;5.60;;;30.00;29.50;;;;;;4938974;29;20925;-86
2023/06/12 09:29:38;;;;;;;5.50;5.00;;;30.10;29.50;;;;;;4926585;29;20442;-88
2023/06/12 09:32:09;;;;;;;6.33;5.40;;;30.00;27.10;;;;;;4938905;29;20453;-88
2023/06/12 09:34:36;;;;;;;6.93;5.87;;;30.00;28.60;;;;;;4935011;29;20473;-87
2023/06/12 09:37:06;;;;;;;5.97;5.37;;;29.90;28.00;;;;;;4921355;29;20453;-87
2023/06/12 09:39:33;;;;;;;5.77;5.27;;;29.70;27.60;;;;;;4909131;29;20465;-87
2023/06/12 09:42:02;;;;;;;5.60;5.10;;;29.50;28.60;;;;;;4939270;28;20446;-88
2023/06/12 09:44:31;;;;;;;6.33;5.53;;;29.70;28.30;;;;;;4907822;29;21167;-89
2023/06/12 09:47:02;;;;;;;5.50;5.00;;;30.20;29.80;;;;;;4919733;29;20800;-86
2023/06/12 09:49:31;;;;;;;4.97;4.47;;;30.30;27.10;;;;;;4919314;29;20465;-86
2023/06/12 09:52:03;;;;;;;5.03;4.53;;;30.30;27.40;;;;;;4938147;28;20454;-87
2023/06/12 09:54:32;;;;;;;8.17;5.00;;;30.40;28.10;;;;;;4921665;29;20956;-87
2023/06/12 09:57:02;;;;;;;5.87;5.27;;;30.50;26.80;;;;;;4912745;29;20465;-88
2023/06/12 09:59:33;;;;;;;6.30;5.03;;;30.60;26.90;;;;;;4926950;29;20481;-88
2023/06/12 10:02:05;;;;;;;5.93;5.43;;;31.00;26.60;;;;;;4927297;29;21234;-87
2023/06/12 10:04:41;;;;;;;5.67;5.17;;;31.10;26.60;;;;;;4930097;29;20458;-85
2023/06/12 10:07:12;;;;;;;6.07;5.40;;;31.10;26.40;;;;;;4917915;29;20462;-85
2023/06/12 10:09:40;;;;;;;8.30;5.90;;;31.00;27.50;;;;;;4911767;29;20446;-85
2023/06/12 10:12:08;;;;;;;6.07;5.47;;;30.90;26.90;;;;;;4908219;29;20475;-85
2023/06/12 10:14:37;;;;;;;6.20;5.70;;;31.00;27.80;;;;;;4930013;29;20488;-85
2023/06/12 10:17:05;;;;;;;6.00;5.40;;;31.20;27.80;;;;;;4899807;29;20542;-85
2023/06/12 10:19:36;;;;;;;7.07;5.90;;;31.40;27.70;;;;;;4917015;29;20463;-86
2023/06/12 10:22:04;;;;;;;6.60;5.20;;;31.00;27.30;;;;;;4906263;29;21265;-87
2023/06/12 10:24:32;;;;;;;7.13;5.60;;;31.40;26.50;;;;;;4914029;29;20514;-85
2023/06/12 10:26:59;;;;;;;6.77;6.07;;;31.50;26.50;;;;;;4903910;29;21206;-85
2023/06/12 10:29:27;;;;;;;5.90;5.30;;;31.30;27.40;;;;;;4913525;29;20845;-88
2023/06/12 10:31:54;;;;;;;5.70;5.10;;;31.60;27.30;;;;;;4921727;29;20457;-86
2023/06/12 10:34:21;;;;;;;4.90;4.40;;;31.80;25.90;;;;;;4904026;29;20471;-86
2023/06/12 10:36:49;;;;;;;4.43;4.03;;;32.00;25.30;;;;;;4905995;29;20450;-86
2023/06/12 10:39:17;;;;;;;5.47;5.00;;;32.10;24.60;;;;;;4930179;29;21064;-86
2023/06/12 10:41:56;;;;;;;5.13;4.73;;;32.00;24.90;;;;;;4907037;29;20446;-86
2023/06/12 10:44:39;;;;;;;5.53;4.40;;;32.10;23.20;;;;;;4915828;29;20456;-86
2023/06/12 10:47:16;;;;;;;5.10;4.60;;;32.30;24.60;;;;;;4932277;29;20457;-86
2023/06/12 10:50:01;;;;;;;5.43;4.90;;;32.30;25.10;;;;;;4907371;29;20475;-87
2023/06/12 10:52:29;;;;;;;5.77;4.90;;;32.00;25.20;;;;;;4913738;29;20441;-86
2023/06/12 10:55:19;;;;;;;8.70;5.70;;;32.10;25.20;;;;;;4923279;29;21180;-87
2023/06/12 10:57:48;;;;;;;9.43;6.03;;;32.20;24.90;;;;;;4946021;28;20470;-85
2023/06/12 11:00:17;;;;;;;6.37;5.73;;;32.10;25.00;;;;;;4933608;29;20542;-86
2023/06/12 11:02:46;;;;;;;5.80;5.30;;;32.20;26.30;;;;;;4936546;29;21189;-86
2023/06/12 11:05:17;;;;;;;6.13;5.53;;;32.40;25.80;;;;;;4932271;29;20498;-87
2023/06/12 11:07:47;;;;;;;6.20;5.70;;;32.70;25.80;;;;;;4922886;29;20474;-85
2023/06/12 11:10:15;;;;;;;6.60;5.43;;;32.80;25.60;;;;;;4929299;29;21026;-85
2023/06/12 11:12:47;;;;;;;8.03;5.27;;;32.70;25.70;;;;;;4921241;29;20490;-86
2023/06/12 11:15:14;;;;;;;6.30;5.33;;;32.70;26.20;;;;;;4929442;29;20526;-85
2023/06/12 11:17:42;;;;;;;6.80;5.63;;;32.70;26.40;;;;;;4927295;29;20470;-86
2023/06/12 11:20:10;;;;;;;6.90;6.20;;;32.80;26.00;;;;;;4905007;29;20825;-86
2023/06/12 11:22:37;;;;;;;6.20;5.60;;;32.90;25.80;;;;;;4911907;29;20450;-85
2023/06/12 11:25:06;;;;;;;7.33;6.03;;;32.80;26.20;;;;;;4916055;29;20454;-85
2023/06/12 11:27:36;;;;;;;6.30;5.70;;;32.70;26.10;;;;;;4945989;28;20485;-86
2023/06/12 11:30:10;;;;;;;6.33;5.73;;;32.80;26.50;;;;;;4934806;29;20470;-85
2023/06/12 11:32:37;;;;;;;6.80;6.20;;;33.20;25.80;;;;;;4910731;29;20604;-85
2023/06/12 11:35:06;;;;;;;6.33;5.73;;;33.30;25.60;;;;;;4915216;29;20995;-84
2023/06/12 11:37:34;;;;;;;6.10;5.50;;;33.40;25.10;;;;;;4929157;29;20818;-87
2023/06/12 11:40:06;;;;;;;6.27;5.70;;;32.90;25.50;;;;;;4933399;29;20454;-86
2023/06/12 11:42:34;;;;;;;8.73;6.60;;;32.90;26.60;;;;;;4914674;29;20465;-86
2023/06/12 11:45:01;;;;;;;9.73;5.40;;;32.90;25.80;;;;;;4905774;29;20493;-86
2023/06/12 11:47:29;;;;;;;6.30;5.70;;;33.00;26.40;;;;;;4903181;29;20479;-85
2023/06/12 11:49:56;;;;;;;6.43;5.73;;;33.00;26.40;;;;;;4919334;29;21202;-86
2023/06/12 11:52:23;;;;;;;6.90;6.30;;;33.20;25.90;;;;;;4921284;29;20451;-86
2023/06/12 11:54:58;;;;;;;9.50;6.80;;;33.30;26.10;;;;;;4922984;29;20478;-86
2023/06/12 11:57:27;;;;;;;6.80;6.20;;;33.60;25.50;;;;;;4937259;29;20529;-88
2023/06/12 11:59:59;;;;;;;5.80;5.30;;;33.30;25.00;;;;;;4907703;29;20446;-86
2023/06/12 12:02:30;;;;;;;7.53;5.70;;;33.20;24.80;;;;;;4914738;29;20461;-87
2023/06/12 12:04:59;;;;;;;6.70;6.10;;;33.10;25.50;;;;;;4908701;29;20992;-86
2023/06/12 12:07:28;;;;;;;8.00;5.97;;;32.90;25.60;;;;;;4905174;29;20486;-87
2023/06/12 12:10:10;;;;;;;5.83;5.33;;;33.20;25.00;;;;;;4932668;29;20466;-86
2023/06/12 12:12:42;;;;;;;6.40;5.80;;;33.00;25.20;;;;;;4919024;29;20999;-86
2023/06/12 12:15:12;;;;;;;6.37;5.80;;;33.30;25.10;;;;;;4914602;29;21034;-86
2023/06/12 12:17:40;;;;;;;6.50;5.63;;;33.20;25.50;;;;;;4895264;29;20549;-87
2023/06/12 12:20:13;;;;;;;6.00;5.50;;;33.00;25.40;;;;;;4915841;29;21127;-86
2023/06/12 12:22:41;;;;;;;5.70;5.20;;;32.80;24.90;;;;;;4906736;29;20469;-87
2023/06/12 12:25:10;;;;;;;6.77;6.13;;;33.00;25.30;;;;;;4918319;29;20983;-87
2023/06/12 12:27:38;;;;;;;7.00;5.60;;;33.20;25.10;;;;;;4917920;29;20503;-87
2023/06/12 12:30:07;;;;;;;6.27;5.67;;;33.30;25.30;;;;;;4914500;29;20455;-85
2023/06/12 12:32:35;;;;;;;6.40;5.80;;;33.20;25.30;;;;;;4904264;29;20450;-86
2023/06/12 12:35:03;;;;;;;6.10;5.60;;;33.10;25.90;;;;;;4897491;29;20481;-85
2023/06/12 12:37:30;;;;;;;6.33;5.70;;;33.20;25.20;;;;;;4903877;28;20467;-85
2023/06/12 12:39:57;;;;;;;6.00;5.40;;;33.30;25.70;;;;;;4933012;28;20466;-86
2023/06/12 12:42:24;;;;;;;10.20;6.37;;;33.40;25.10;;;;;;4897894;29;20474;-86
2023/06/12 12:44:51;;;;;;;7.20;5.97;;;33.40;24.40;;;;;;4936732;29;20578;-85
2023/06/12 12:47:18;;;;;;;14.53;5.33;;;33.10;24.80;;;;;;4926722;29;20486;-86
2023/06/12 12:49:46;;;;;;;7.47;5.53;;;33.30;25.70;;;;;;4928669;29;20467;-87
2023/06/12 12:52:14;;;;;;;6.53;5.90;;;33.50;25.50;;;;;;4930020;29;20463;-86